Time;durP1;ratioP1;P1;durP2;ratioP2;P2;SDS_P1;SDS_P2;PMS_P1;PMS_P2;Temp;Humidity;BMP_temperature;BMP_pressure;BME280_temperature;BME280_humidity;BME280_pressure;Samples;Min_cycle;Max_cycle;Signal;HPM_P1;HPM_P2
2022/10/01 00:01:17;;;;;;;10.00;5.70;;;7.40;99.90;;;;;;20996297;28;20040;-78
2022/10/01 00:11:23;;;;;;;10.20;6.05;;;7.40;99.90;;;;;;21014174;28;20049;-79
2022/10/01 00:21:27;;;;;;;10.23;6.15;;;7.10;99.90;;;;;;21014922;28;20415;-78
2022/10/01 00:31:28;;;;;;;13.50;6.72;;;6.90;99.90;;;;;;21017312;28;20071;-79
2022/10/01 00:41:32;;;;;;;15.73;7.63;;;6.90;99.90;;;;;;20975180;28;20453;-79
2022/10/01 00:51:38;;;;;;;59.08;8.77;;;7.20;99.90;;;;;;21007775;28;20043;-79
2022/10/01 01:01:39;;;;;;;86.93;9.20;;;7.00;99.90;;;;;;21007860;28;20036;-78
2022/10/01 01:11:57;;;;;;;182.10;11.63;;;6.90;99.90;;;;;;20988642;28;20453;-77
2022/10/01 01:22:03;;;;;;;49.03;7.57;;;6.70;99.90;;;;;;21006392;28;20279;-79
2022/10/01 01:32:11;;;;;;;9.77;6.03;;;6.60;99.90;;;;;;20989545;28;20036;-79
2022/10/01 01:42:22;;;;;;;9.07;5.68;;;6.80;99.90;;;;;;20989723;28;20462;-79
2022/10/01 01:52:23;;;;;;;11.00;6.47;;;6.70;99.90;;;;;;21027444;22;20426;-75
2022/10/01 02:02:32;;;;;;;12.23;6.32;;;6.80;99.90;;;;;;20970120;28;20094;-75
2022/10/01 02:13:02;;;;;;;115.25;9.68;;;7.00;99.90;;;;;;20907745;28;20041;-75
2022/10/01 02:23:10;;;;;;;151.73;12.38;;;7.00;99.90;;;;;;20907724;28;20051;-75
2022/10/01 02:33:14;;;;;;;16.15;8.15;;;6.90;99.90;;;;;;20889739;28;20076;-75
2022/10/01 02:43:52;;;;;;;60.47;9.15;;;7.00;99.90;;;;;;20908619;28;20055;-75
2022/10/01 02:54:07;;;;;;;32.08;8.07;;;7.20;99.90;;;;;;20879866;28;20052;-75
2022/10/01 03:04:07;;;;;;;44.10;8.50;;;7.10;99.90;;;;;;20911030;28;20469;-75
2022/10/01 03:14:09;;;;;;;41.30;8.87;;;6.90;99.90;;;;;;20920605;28;20080;-75
2022/10/01 03:24:10;;;;;;;163.30;12.02;;;6.80;99.90;;;;;;20919835;28;20041;-75
2022/10/01 03:34:12;;;;;;;64.72;10.57;;;6.70;99.90;;;;;;20919451;28;20048;-75
2022/10/01 03:44:13;;;;;;;78.70;11.43;;;6.60;99.90;;;;;;20918250;28;20055;-75
2022/10/01 03:54:14;;;;;;;18.83;8.60;;;6.60;99.90;;;;;;20917844;28;20072;-75
2022/10/01 04:04:14;;;;;;;13.73;6.83;;;6.50;99.90;;;;;;20918994;28;20037;-75
2022/10/01 04:14:15;;;;;;;19.93;7.03;;;6.60;99.90;;;;;;20915908;28;20052;-75
2022/10/01 04:24:16;;;;;;;13.50;7.00;;;6.60;99.90;;;;;;20916156;28;20495;-75
2022/10/01 04:34:17;;;;;;;36.47;8.03;;;6.60;99.90;;;;;;20914305;28;20040;-75
2022/10/01 04:44:19;;;;;;;14.23;7.20;;;6.60;99.90;;;;;;20917925;28;20537;-75
2022/10/01 04:54:19;;;;;;;13.02;6.78;;;6.60;99.90;;;;;;20912733;28;20426;-76
2022/10/01 05:04:20;;;;;;;157.00;37.00;;;6.70;99.90;;;;;;20912246;28;20044;-75
2022/10/01 05:14:21;;;;;;;12.03;6.90;;;6.80;99.90;;;;;;20911845;28;20041;-75
2022/10/01 05:24:22;;;;;;;54.13;15.70;;;6.80;99.90;;;;;;20893689;28;20460;-75
2022/10/01 05:34:23;;;;;;;;;;;6.90;99.90;;;;;;20910739;28;20037;-75
2022/10/01 05:44:24;;;;;;;25.17;10.73;;;6.90;99.90;;;;;;20909742;28;19915;-76
2022/10/01 05:54:28;;;;;;;40.00;10.90;;;6.90;99.90;;;;;;20890989;28;20037;-76
2022/10/01 06:04:28;;;;;;;25.83;9.60;;;7.00;99.90;;;;;;20908821;28;20159;-75
2022/10/01 06:14:29;;;;;;;21.77;10.57;;;7.10;99.90;;;;;;20907926;28;20033;-75
2022/10/01 06:24:30;;;;;;;22.33;9.43;;;7.20;99.90;;;;;;20889916;28;20048;-76
2022/10/01 06:34:31;;;;;;;20.83;10.27;;;7.30;99.90;;;;;;20914097;28;20044;-76
2022/10/01 06:44:32;;;;;;;19.43;8.60;;;7.40;99.90;;;;;;20922949;28;20040;-75
2022/10/01 06:54:32;;;;;;;18.20;9.17;;;7.40;99.90;;;;;;20904569;28;20037;-75
2022/10/01 07:04:33;;;;;;;19.40;10.00;;;7.60;99.90;;;;;;20904922;28;20061;-76
2022/10/01 07:14:34;;;;;;;15.47;8.20;;;7.60;99.90;;;;;;20921646;28;20045;-75
2022/10/01 07:24:35;;;;;;;17.83;8.80;;;7.80;99.90;;;;;;20925407;28;20036;-76
2022/10/01 07:34:39;;;;;;;30.07;13.73;;;7.90;99.90;;;;;;20919516;28;20041;-76
2022/10/01 07:44:39;;;;;;;28.75;15.80;;;8.10;99.90;;;;;;20918927;28;20045;-76
2022/10/01 07:54:40;;;;;;;22.27;12.00;;;8.20;99.90;;;;;;20881746;23;20050;-76
2022/10/01 08:15:01;;;;;;;11.73;7.35;;;8.60;99.90;;;;;;20751171;28;20519;-76
2022/10/01 08:25:03;;;;;;;10.93;6.33;;;8.90;99.90;;;;;;20751185;28;20124;-75
2022/10/01 08:35:04;;;;;;;9.38;4.20;;;9.00;99.90;;;;;;20751511;28;20037;-76
2022/10/01 08:45:27;;;;;;;6.10;4.25;;;9.20;99.90;;;;;;20750572;28;20038;-76
2022/10/01 08:55:35;;;;;;;8.25;4.30;;;9.40;99.90;;;;;;20748982;28;20370;-75
2022/10/01 09:05:46;;;;;;;11.07;7.25;;;9.60;99.90;;;;;;20748369;28;20042;-75
2022/10/01 09:16:09;;;;;;;6.10;3.20;;;9.80;99.90;;;;;;20753536;28;20075;-75
2022/10/01 09:26:11;;;;;;;5.10;3.55;;;10.00;99.90;;;;;;20748056;28;20085;-76
2022/10/01 09:36:37;;;;;;;3.95;3.15;;;10.30;99.90;;;;;;20746084;28;20041;-75
2022/10/01 09:46:37;;;;;;;6.32;3.38;;;10.50;99.90;;;;;;20743924;28;20052;-75
2022/10/01 09:56:49;;;;;;;9.67;6.57;;;10.60;99.90;;;;;;20743247;28;20041;-75
2022/10/01 10:06:58;;;;;;;4.90;2.90;;;10.90;99.90;;;;;;20742762;28;20092;-75
2022/10/01 10:17:05;;;;;;;4.82;3.00;;;11.20;99.90;;;;;;20779280;28;20049;-75
2022/10/01 10:27:26;;;;;;;7.57;2.40;;;11.20;99.90;;;;;;20746136;28;20574;-75
2022/10/01 10:37:30;;;;;;;5.63;3.67;;;11.10;99.90;;;;;;20903877;28;20081;-76
2022/10/01 10:47:41;;;;;;;10.80;4.88;;;11.10;99.90;;;;;;20872640;28;20089;-75
2022/10/01 10:57:43;;;;;;;13.20;5.88;;;11.30;99.90;;;;;;20860040;28;20048;-74
2022/10/01 11:07:47;;;;;;;5.93;4.63;;;11.30;99.90;;;;;;20917752;28;20449;-74
2022/10/01 11:18:09;;;;;;;8.20;4.47;;;11.20;99.90;;;;;;20909009;28;20053;-75
2022/10/01 11:28:19;;;;;;;;;;;11.10;99.90;;;;;;20863660;28;20496;-75
2022/10/01 11:38:34;;;;;;;6.63;4.38;;;10.90;99.90;;;;;;20819219;28;20012;-74
2022/10/01 11:48:45;;;;;;;13.20;5.88;;;11.10;99.90;;;;;;20836132;28;20041;-75
2022/10/01 11:58:53;;;;;;;;;;;11.00;99.90;;;;;;20849871;28;20103;-75
2022/10/01 12:09:18;;;;;;;11.65;6.22;;;11.00;99.90;;;;;;20885456;28;19948;-76
2022/10/01 12:19:28;;;;;;;6.50;3.70;;;11.00;99.90;;;;;;20869860;28;20037;-75
2022/10/01 12:29:40;;;;;;;7.90;5.40;;;10.90;99.90;;;;;;20859587;28;20558;-76
2022/10/01 12:39:53;;;;;;;3.17;2.42;;;10.80;99.90;;;;;;20872448;28;20037;-75
2022/10/01 12:49:55;;;;;;;2.88;2.08;;;10.70;99.90;;;;;;20869156;28;20036;-76
2022/10/01 13:00:18;;;;;;;4.00;2.35;;;10.80;99.90;;;;;;20871683;28;20040;-76
2022/10/01 13:10:38;;;;;;;6.13;2.85;;;10.90;99.90;;;;;;20893027;28;20091;-77
2022/10/01 13:20:53;;;;;;;6.68;3.53;;;10.80;99.90;;;;;;20910023;28;20419;-77
2022/10/01 13:30:59;;;;;;;9.50;3.83;;;10.70;99.90;;;;;;20849219;28;20411;-76
2022/10/01 13:41:03;;;;;;;10.15;5.28;;;10.70;99.90;;;;;;20867384;28;20455;-77
2022/10/01 13:51:11;;;;;;;8.82;4.70;;;10.60;99.90;;;;;;20847780;28;20041;-78
2022/10/01 14:01:15;;;;;;;7.03;3.67;;;10.60;99.90;;;;;;20924858;28;20099;-77
2022/10/01 14:22:03;;;;;;;5.40;3.60;;;10.70;99.90;;;;;;20911262;28;20039;-77
2022/10/01 14:32:37;;;;;;;5.63;4.00;;;10.80;99.90;;;;;;20828717;28;20040;-78
2022/10/01 15:06:19;;;;;;;6.65;4.03;;;11.00;99.90;;;;;;21006190;28;20029;-77
2022/10/01 15:17:24;;;;;;;;;;;;;;;;;;;;;
2022/10/01 15:28:34;;;;;;;6.43;3.80;;;11.00;99.90;;;;;;20962421;28;20430;-78
2022/10/01 15:39:42;;;;;;;12.02;5.50;;;10.90;99.90;;;;;;20577491;28;20122;-77
2022/10/01 16:02:10;;;;;;;24.05;12.73;;;11.00;99.90;;;;;;20383286;29;20491;-77
2022/10/01 16:13:37;;;;;;;15.32;9.68;;;11.00;99.90;;;;;;20540189;28;20444;-77
2022/10/01 16:24:59;;;;;;;18.10;10.25;;;11.00;99.90;;;;;;20522459;28;20046;-76
2022/10/01 16:36:18;;;;;;;39.63;20.17;;;11.00;99.90;;;;;;20750729;28;20034;-76
2022/10/01 16:47:07;;;;;;;;;;;;;;;;;;;;;
2022/10/01 17:08:58;;;;;;;13.70;8.77;;;11.10;99.90;;;;;;20337934;29;20037;-77
2022/10/01 17:19:00;;;;;;;11.60;7.23;;;11.20;99.90;;;;;;20506104;28;20065;-77
2022/10/01 17:29:01;;;;;;;14.30;7.65;;;11.30;99.90;;;;;;20656779;28;20051;-77
2022/10/01 17:39:02;;;;;;;24.80;13.50;;;11.30;99.90;;;;;;20768266;28;20297;-76
2022/10/01 17:49:03;;;;;;;20.05;10.98;;;11.40;99.90;;;;;;20993073;28;20090;-76
2022/10/01 17:59:04;;;;;;;123.83;25.10;;;11.40;99.90;;;;;;20956399;28;20069;-76
2022/10/01 18:09:06;;;;;;;478.53;34.13;;;11.40;99.90;;;;;;20909080;28;20076;-76
2022/10/01 18:19:11;;;;;;;23.50;12.80;;;11.50;99.90;;;;;;20891137;28;20530;-76
2022/10/01 18:29:29;;;;;;;28.73;12.32;;;11.60;99.90;;;;;;20970933;28;20039;-77
2022/10/01 18:39:42;;;;;;;24.13;13.30;;;11.70;99.90;;;;;;21006806;28;20111;-77
2022/10/01 18:49:55;;;;;;;25.92;11.85;;;11.80;99.90;;;;;;21008988;28;20072;-77
2022/10/01 19:00:15;;;;;;;73.93;15.00;;;11.90;99.90;;;;;;20993133;28;20072;-77
2022/10/01 19:10:57;;;;;;;23.63;11.43;;;12.00;99.90;;;;;;20988433;28;20406;-77
2022/10/01 19:21:07;;;;;;;56.53;19.27;;;12.10;99.90;;;;;;20987788;28;20088;-77
2022/10/01 19:31:11;;;;;;;32.22;15.27;;;12.10;99.90;;;;;;20963105;28;20033;-76
2022/10/01 19:41:19;;;;;;;29.15;13.60;;;12.20;99.90;;;;;;20987292;28;20402;-77
2022/10/01 19:51:26;;;;;;;32.92;15.02;;;12.20;99.90;;;;;;20963238;28;20043;-76
2022/10/01 20:01:36;;;;;;;32.20;13.85;;;12.30;99.90;;;;;;21058941;23;20489;-79
2022/10/01 20:11:47;;;;;;;25.33;12.10;;;12.30;99.90;;;;;;21000083;28;20036;-79
2022/10/01 20:21:59;;;;;;;35.70;14.37;;;12.30;99.90;;;;;;21018993;28;20100;-80
2022/10/01 20:32:11;;;;;;;26.00;9.63;;;12.40;99.90;;;;;;20959884;28;20044;-79
2022/10/01 20:42:23;;;;;;;21.05;10.77;;;12.40;99.90;;;;;;21018188;28;20043;-80
2022/10/01 20:52:28;;;;;;;17.70;10.23;;;12.50;99.90;;;;;;20958437;28;20175;-80
2022/10/01 21:02:40;;;;;;;22.90;11.70;;;12.60;99.90;;;;;;20979345;28;20608;-80
2022/10/01 21:12:54;;;;;;;19.47;10.73;;;12.60;99.90;;;;;;20931414;28;20041;-80
2022/10/01 21:23:12;;;;;;;21.67;9.60;;;12.60;99.90;;;;;;20922211;28;20044;-80
2022/10/01 21:33:22;;;;;;;16.88;8.82;;;12.70;99.90;;;;;;20896851;28;20143;-79
2022/10/01 21:43:44;;;;;;;26.58;10.23;;;12.70;99.90;;;;;;20933617;28;20044;-79
2022/10/01 21:53:51;;;;;;;15.00;7.85;;;12.80;99.90;;;;;;20917469;28;20107;-79
2022/10/01 22:04:25;;;;;;;18.75;6.88;;;12.80;99.90;;;;;;20932094;28;20048;-80
2022/10/01 22:14:28;;;;;;;10.55;6.05;;;12.80;99.90;;;;;;20929526;28;20529;-80
2022/10/01 22:24:38;;;;;;;14.07;6.18;;;12.90;99.90;;;;;;20954646;28;20037;-80
2022/10/01 22:34:45;;;;;;;9.05;4.90;;;12.90;99.90;;;;;;20929098;28;20046;-80
2022/10/01 22:44:46;;;;;;;9.95;5.18;;;12.90;99.90;;;;;;20876983;28;20033;-80
2022/10/01 22:55:25;;;;;;;6.53;4.15;;;13.00;99.90;;;;;;20885692;28;20499;-80
2022/10/01 23:05:44;;;;;;;8.77;5.00;;;13.00;99.90;;;;;;20893817;28;20037;-80
2022/10/01 23:16:11;;;;;;;9.15;5.43;;;13.00;99.90;;;;;;20908625;28;20044;-80
2022/10/01 23:26:38;;;;;;;7.57;3.90;;;13.00;99.90;;;;;;20959166;28;20099;-80
2022/10/01 23:37:10;;;;;;;5.57;4.07;;;13.00;99.90;;;;;;20867900;28;20379;-80
2022/10/01 23:47:17;;;;;;;7.90;4.13;;;13.10;99.90;;;;;;20878808;28;20041;-80
2022/10/01 23:57:36;;;;;;;4.85;3.70;;;13.20;99.90;;;;;;20912490;28;20041;-81
